BTK6605 WAWW-WALL
Flight info
| Callsign | BTK6605 |
|---|---|
| Flight time | 1h 21m |
| Altitude | 39000 |
| Route | LEKEX W54 MKS W37 BPN |
| Aircraft | B738/M-SDFGHIRWY/EB2 |
Departure
| Time | 2026-04-25 07:32 |
|---|---|
| Airport | Haluoleo Airport (WAWW) |
Arrival
| Time | 2026-04-25 08:53 |
|---|---|
| Airport | Sultan Aji Muhammad Sulaiman Sepinggan International Airport (WALL) |
| Time | Latitude | Longitude | Altitude | Speed | Heading |
|---|---|---|---|---|---|
| 2026-04-25 07:04 | -4.07784 | 122.41780 | 137 ft | 0 kts | 349° |
| 2026-04-25 07:22 | -4.07789 | 122.41781 | 165 ft | 2 kts | 349° |
| 2026-04-25 07:22 | -4.07807 | 122.41785 | 167 ft | 3 kts | 342° |
| 2026-04-25 07:23 | -4.07826 | 122.41792 | 167 ft | 3 kts | 328° |
| 2026-04-25 07:23 | -4.07841 | 122.41805 | 168 ft | 3 kts | 295° |
| 2026-04-25 07:23 | -4.07845 | 122.41817 | 167 ft | 1 kts | 259° |
| 2026-04-25 07:23 | -4.07844 | 122.41822 | 167 ft | 0 kts | 259° |
| 2026-04-25 07:27 | -4.07847 | 122.41808 | 167 ft | 5 kts | 259° |
| 2026-04-25 07:27 | -4.07855 | 122.41763 | 167 ft | 9 kts | 259° |
| 2026-04-25 07:27 | -4.07875 | 122.41695 | 167 ft | 4 kts | 215° |
| 2026-04-25 07:27 | -4.07924 | 122.41696 | 167 ft | 9 kts | 163° |
| 2026-04-25 07:28 | -4.08001 | 122.41706 | 167 ft | 14 kts | 172° |
| 2026-04-25 07:28 | -4.08118 | 122.41729 | 167 ft | 20 kts | 169° |
| 2026-04-25 07:28 | -4.08193 | 122.41728 | 166 ft | 7 kts | 219° |
| 2026-04-25 07:28 | -4.08216 | 122.41664 | 167 ft | 13 kts | 256° |
| 2026-04-25 07:29 | -4.08244 | 122.41555 | 166 ft | 19 kts | 255° |
| 2026-04-25 07:29 | -4.08254 | 122.41415 | 166 ft | 23 kts | 268° |
| 2026-04-25 07:29 | -4.08300 | 122.41258 | 167 ft | 24 kts | 261° |
| 2026-04-25 07:29 | -4.08325 | 122.41080 | 168 ft | 28 kts | 262° |
| 2026-04-25 07:30 | -4.08351 | 122.40941 | 169 ft | 15 kts | 240° |
| 2026-04-25 07:30 | -4.08363 | 122.40883 | 169 ft | 3 kts | 333° |
| 2026-04-25 07:30 | -4.08359 | 122.40887 | 169 ft | 0 kts | 39° |
| 2026-04-25 07:30 | -4.08356 | 122.40892 | 169 ft | 1 kts | 47° |
| 2026-04-25 07:31 | -4.08354 | 122.40896 | 169 ft | 0 kts | 62° |
| 2026-04-25 07:31 | -4.08297 | 122.41141 | 168 ft | 84 kts | 78° |
| 2026-04-25 07:31 | -4.08127 | 122.42040 | 169 ft | 170 kts | 79° |
| 2026-04-25 07:31 | -4.07894 | 122.43341 | 760 ft | 200 kts | 80° |
| 2026-04-25 07:32 | -4.07666 | 122.44803 | 1656 ft | 227 kts | 82° |
| 2026-04-25 07:32 | -4.07464 | 122.46467 | 2682 ft | 252 kts | 85° |
| 2026-04-25 07:32 | -4.07585 | 122.48286 | 3780 ft | 270 kts | 101° |
| 2026-04-25 07:32 | -4.08260 | 122.50085 | 5027 ft | 279 kts | 120° |
| 2026-04-25 07:33 | -4.09561 | 122.51456 | 6451 ft | 270 kts | 144° |
| 2026-04-25 07:33 | -4.11270 | 122.52159 | 7076 ft | 265 kts | 170° |
| 2026-04-25 07:33 | -4.13162 | 122.52022 | 7381 ft | 291 kts | 199° |
| 2026-04-25 07:33 | -4.14874 | 122.50940 | 8438 ft | 294 kts | 226° |
| 2026-04-25 07:34 | -4.15972 | 122.49218 | 9541 ft | 299 kts | 251° |
| 2026-04-25 07:34 | -4.16491 | 122.47170 | 10414 ft | 311 kts | 259° |
| 2026-04-25 07:34 | -4.16873 | 122.44954 | 10908 ft | 335 kts | 262° |
| 2026-04-25 07:34 | -4.17233 | 122.42575 | 11419 ft | 353 kts | 262° |
| 2026-04-25 07:35 | -4.17613 | 122.40126 | 12300 ft | 359 kts | 262° |
| 2026-04-25 07:35 | -4.18017 | 122.37635 | 13264 ft | 363 kts | 261° |
| 2026-04-25 07:35 | -4.18436 | 122.35147 | 14117 ft | 368 kts | 261° |
| 2026-04-25 07:35 | -4.18870 | 122.32599 | 14917 ft | 373 kts | 261° |
| 2026-04-25 07:36 | -4.19312 | 122.30021 | 15710 ft | 377 kts | 261° |
| 2026-04-25 07:36 | -4.19759 | 122.27415 | 16489 ft | 382 kts | 261° |
| 2026-04-25 07:36 | -4.20212 | 122.24775 | 17244 ft | 387 kts | 261° |
| 2026-04-25 07:36 | -4.20665 | 122.22129 | 18001 ft | 391 kts | 260° |
| 2026-04-25 07:37 | -4.21128 | 122.19428 | 18643 ft | 396 kts | 260° |
| 2026-04-25 07:37 | -4.21596 | 122.16691 | 19280 ft | 400 kts | 260° |
| 2026-04-25 07:37 | -4.22069 | 122.13925 | 19891 ft | 405 kts | 260° |
| 2026-04-25 07:37 | -4.22548 | 122.11127 | 20517 ft | 409 kts | 260° |
| 2026-04-25 07:38 | -4.23031 | 122.08302 | 21114 ft | 414 kts | 260° |
| 2026-04-25 07:38 | -4.23520 | 122.05440 | 21743 ft | 418 kts | 260° |
| 2026-04-25 07:38 | -4.24012 | 122.02558 | 22335 ft | 423 kts | 260° |
| 2026-04-25 07:38 | -4.24511 | 121.99635 | 22935 ft | 427 kts | 260° |
| 2026-04-25 07:39 | -4.25013 | 121.96694 | 23485 ft | 432 kts | 260° |
| 2026-04-25 07:39 | -4.25516 | 121.93746 | 23976 ft | 435 kts | 260° |
| 2026-04-25 07:39 | -4.26085 | 121.90750 | 24490 ft | 440 kts | 256° |
| 2026-04-25 07:39 | -4.26976 | 121.87812 | 25040 ft | 443 kts | 251° |
| 2026-04-25 07:40 | -4.27957 | 121.84867 | 25555 ft | 447 kts | 251° |
| 2026-04-25 07:40 | -4.28939 | 121.81891 | 25802 ft | 450 kts | 251° |
| 2026-04-25 07:40 | -4.29916 | 121.78914 | 25871 ft | 450 kts | 251° |
| 2026-04-25 07:40 | -4.30895 | 121.75928 | 25879 ft | 450 kts | 251° |
| 2026-04-25 07:41 | -4.31872 | 121.72951 | 25882 ft | 449 kts | 251° |
| 2026-04-25 07:41 | -4.32847 | 121.69978 | 25879 ft | 449 kts | 251° |
| 2026-04-25 07:41 | -4.33812 | 121.67037 | 25878 ft | 449 kts | 251° |
| 2026-04-25 07:41 | -4.34788 | 121.64063 | 25876 ft | 449 kts | 251° |
| 2026-04-25 07:42 | -4.35762 | 121.61095 | 25873 ft | 449 kts | 251° |
| 2026-04-25 07:42 | -4.36738 | 121.58116 | 25873 ft | 449 kts | 251° |
| 2026-04-25 07:42 | -4.37713 | 121.55144 | 25875 ft | 448 kts | 251° |
| 2026-04-25 07:42 | -4.38677 | 121.52203 | 25874 ft | 448 kts | 251° |
| 2026-04-25 07:43 | -4.39649 | 121.49239 | 25872 ft | 448 kts | 251° |
| 2026-04-25 07:43 | -4.40580 | 121.46398 | 25872 ft | 448 kts | 251° |
| 2026-04-25 07:43 | -4.41560 | 121.43405 | 25873 ft | 449 kts | 251° |
| 2026-04-25 07:43 | -4.42521 | 121.40470 | 25868 ft | 448 kts | 251° |
| 2026-04-25 07:44 | -4.43495 | 121.37497 | 25897 ft | 450 kts | 251° |
| 2026-04-25 07:44 | -4.44475 | 121.34506 | 26326 ft | 452 kts | 251° |
| 2026-04-25 07:44 | -4.45460 | 121.31498 | 26856 ft | 454 kts | 251° |
| 2026-04-25 07:44 | -4.46448 | 121.28485 | 27289 ft | 457 kts | 251° |
| 2026-04-25 07:45 | -4.47448 | 121.25430 | 27709 ft | 461 kts | 251° |
| 2026-04-25 07:45 | -4.48450 | 121.22372 | 28162 ft | 464 kts | 251° |
| 2026-04-25 07:45 | -4.49459 | 121.19291 | 28581 ft | 467 kts | 251° |
| 2026-04-25 07:45 | -4.50476 | 121.16184 | 28980 ft | 470 kts | 251° |
| 2026-04-25 07:46 | -4.51489 | 121.13086 | 29362 ft | 474 kts | 251° |
| 2026-04-25 07:46 | -4.52518 | 121.09943 | 29754 ft | 477 kts | 251° |
| 2026-04-25 07:46 | -4.53559 | 121.06760 | 30124 ft | 480 kts | 251° |
| 2026-04-25 07:46 | -4.54604 | 121.03567 | 30465 ft | 483 kts | 251° |
| 2026-04-25 07:47 | -4.55657 | 121.00350 | 30820 ft | 486 kts | 251° |
| 2026-04-25 07:47 | -4.56711 | 120.97125 | 31208 ft | 488 kts | 251° |
| 2026-04-25 07:47 | -4.57769 | 120.93889 | 31681 ft | 488 kts | 251° |
| 2026-04-25 07:47 | -4.58813 | 120.90698 | 32149 ft | 488 kts | 251° |
| 2026-04-25 07:48 | -4.59873 | 120.87458 | 32605 ft | 487 kts | 251° |
| 2026-04-25 07:48 | -4.60928 | 120.84230 | 33056 ft | 487 kts | 251° |
| 2026-04-25 07:48 | -4.61986 | 120.80992 | 33505 ft | 487 kts | 251° |
| 2026-04-25 07:48 | -4.63027 | 120.77804 | 33926 ft | 487 kts | 251° |
| 2026-04-25 07:49 | -4.64082 | 120.74571 | 34338 ft | 486 kts | 251° |
| 2026-04-25 07:49 | -4.65132 | 120.71354 | 34746 ft | 484 kts | 251° |
| 2026-04-25 07:49 | -4.66164 | 120.68192 | 35131 ft | 484 kts | 251° |
| 2026-04-25 07:49 | -4.67213 | 120.64979 | 35524 ft | 483 kts | 251° |
| 2026-04-25 07:50 | -4.68256 | 120.61783 | 35763 ft | 482 kts | 251° |
| 2026-04-25 07:50 | -4.69297 | 120.58594 | 35828 ft | 480 kts | 251° |
| 2026-04-25 07:50 | -4.71363 | 120.52263 | 35832 ft | 480 kts | 251° |
| 2026-04-25 07:51 | -4.73442 | 120.45890 | 35835 ft | 480 kts | 251° |
| 2026-04-25 07:51 | -4.75516 | 120.39529 | 35833 ft | 480 kts | 251° |
| 2026-04-25 07:52 | -4.77580 | 120.33202 | 35832 ft | 480 kts | 251° |
| 2026-04-25 07:52 | -4.79653 | 120.26834 | 35839 ft | 480 kts | 251° |
| 2026-04-25 07:53 | -4.81729 | 120.20459 | 35841 ft | 480 kts | 251° |
| 2026-04-25 07:53 | -4.83805 | 120.14087 | 35846 ft | 480 kts | 251° |
| 2026-04-25 07:54 | -4.85867 | 120.07755 | 35854 ft | 480 kts | 251° |
| 2026-04-25 07:54 | -4.87935 | 120.01398 | 35854 ft | 479 kts | 251° |
| 2026-04-25 07:55 | -4.90002 | 119.95045 | 35856 ft | 479 kts | 251° |
| 2026-04-25 07:55 | -4.92052 | 119.88739 | 35855 ft | 479 kts | 251° |
| 2026-04-25 07:56 | -4.94105 | 119.82423 | 35853 ft | 479 kts | 251° |
| 2026-04-25 07:56 | -4.96175 | 119.76053 | 35855 ft | 479 kts | 251° |
| 2026-04-25 07:57 | -4.98245 | 119.69680 | 35854 ft | 479 kts | 251° |
| 2026-04-25 07:57 | -5.00244 | 119.63294 | 35858 ft | 479 kts | 257° |
| 2026-04-25 07:58 | -5.00686 | 119.60030 | 35857 ft | 479 kts | 268° |
| 2026-04-25 07:58 | -5.00529 | 119.56683 | 35856 ft | 478 kts | 279° |
| 2026-04-25 07:58 | -4.99774 | 119.53428 | 35856 ft | 477 kts | 290° |
| 2026-04-25 07:58 | -4.98457 | 119.50384 | 35854 ft | 475 kts | 301° |
| 2026-04-25 07:59 | -4.94381 | 119.45307 | 35843 ft | 469 kts | 322° |
| 2026-04-25 07:59 | -4.89226 | 119.41271 | 35837 ft | 469 kts | 324° |
| 2026-04-25 08:00 | -4.84107 | 119.37274 | 35835 ft | 469 kts | 324° |
| 2026-04-25 08:00 | -4.78948 | 119.33246 | 35832 ft | 470 kts | 324° |
| 2026-04-25 08:01 | -4.74660 | 119.29900 | 35832 ft | 470 kts | 324° |
| 2026-04-25 08:01 | -4.69493 | 119.25870 | 35833 ft | 470 kts | 324° |
| 2026-04-25 08:02 | -4.63488 | 119.21186 | 35830 ft | 470 kts | 324° |
| 2026-04-25 08:02 | -4.59165 | 119.17815 | 35833 ft | 470 kts | 324° |
| 2026-04-25 08:03 | -4.54039 | 119.13819 | 35832 ft | 470 kts | 324° |
| 2026-04-25 08:03 | -4.48907 | 119.09818 | 35832 ft | 470 kts | 324° |
| 2026-04-25 08:04 | -4.43748 | 119.05798 | 35828 ft | 469 kts | 324° |
| 2026-04-25 08:04 | -4.38582 | 119.01772 | 35832 ft | 469 kts | 324° |
| 2026-04-25 08:05 | -4.33431 | 118.97759 | 35837 ft | 469 kts | 324° |
| 2026-04-25 08:05 | -4.28300 | 118.93762 | 35836 ft | 469 kts | 324° |
| 2026-04-25 08:06 | -4.23142 | 118.89744 | 35835 ft | 468 kts | 324° |
| 2026-04-25 08:06 | -4.18031 | 118.85764 | 35835 ft | 468 kts | 324° |
| 2026-04-25 08:07 | -4.12886 | 118.81758 | 35830 ft | 467 kts | 324° |
| 2026-04-25 08:07 | -4.07745 | 118.77756 | 35831 ft | 467 kts | 324° |
| 2026-04-25 08:08 | -4.02632 | 118.73777 | 35833 ft | 466 kts | 324° |
| 2026-04-25 08:08 | -3.97525 | 118.69803 | 35830 ft | 466 kts | 324° |
| 2026-04-25 08:09 | -3.92419 | 118.65830 | 35826 ft | 466 kts | 324° |
| 2026-04-25 08:09 | -3.87284 | 118.61836 | 35826 ft | 465 kts | 324° |
| 2026-04-25 08:10 | -3.82199 | 118.57881 | 35830 ft | 465 kts | 324° |
| 2026-04-25 08:10 | -3.77079 | 118.53900 | 35829 ft | 465 kts | 324° |
| 2026-04-25 08:11 | -3.71962 | 118.49921 | 35831 ft | 465 kts | 324° |
| 2026-04-25 08:11 | -3.66957 | 118.46030 | 35829 ft | 465 kts | 324° |
| 2026-04-25 08:12 | -3.61874 | 118.42080 | 35829 ft | 465 kts | 324° |
| 2026-04-25 08:12 | -3.56756 | 118.38101 | 35830 ft | 466 kts | 324° |
| 2026-04-25 08:13 | -3.51625 | 118.34115 | 35833 ft | 466 kts | 324° |
| 2026-04-25 08:14 | -3.43961 | 118.28160 | 35837 ft | 466 kts | 324° |
| 2026-04-25 08:14 | -3.38817 | 118.24165 | 35837 ft | 467 kts | 324° |
| 2026-04-25 08:15 | -3.33679 | 118.20174 | 35841 ft | 467 kts | 324° |
| 2026-04-25 08:15 | -3.28569 | 118.16206 | 35843 ft | 467 kts | 324° |
| 2026-04-25 08:16 | -3.23430 | 118.12215 | 35722 ft | 458 kts | 324° |
| 2026-04-25 08:16 | -3.20945 | 118.10283 | 35604 ft | 445 kts | 324° |
| 2026-04-25 08:16 | -3.18571 | 118.08437 | 35484 ft | 431 kts | 324° |
| 2026-04-25 08:16 | -3.16240 | 118.06626 | 35374 ft | 417 kts | 324° |
| 2026-04-25 08:17 | -3.13979 | 118.04870 | 35241 ft | 405 kts | 324° |
| 2026-04-25 08:17 | -3.11774 | 118.03159 | 35014 ft | 396 kts | 325° |
| 2026-04-25 08:17 | -3.09618 | 118.01485 | 34779 ft | 387 kts | 325° |
| 2026-04-25 08:17 | -3.07519 | 117.99855 | 34546 ft | 379 kts | 325° |
| 2026-04-25 08:18 | -3.05451 | 117.98252 | 34316 ft | 370 kts | 325° |
| 2026-04-25 08:18 | -3.03460 | 117.96707 | 34093 ft | 362 kts | 325° |
| 2026-04-25 08:18 | -3.01488 | 117.95176 | 33863 ft | 355 kts | 325° |
| 2026-04-25 08:18 | -2.99545 | 117.93670 | 33612 ft | 352 kts | 325° |
| 2026-04-25 08:19 | -2.97598 | 117.92161 | 33357 ft | 353 kts | 325° |
| 2026-04-25 08:19 | -2.95674 | 117.90632 | 33103 ft | 354 kts | 323° |
| 2026-04-25 08:19 | -2.93784 | 117.89054 | 32852 ft | 353 kts | 322° |
| 2026-04-25 08:19 | -2.91913 | 117.87474 | 32601 ft | 350 kts | 322° |
| 2026-04-25 08:20 | -2.90079 | 117.85928 | 32359 ft | 348 kts | 322° |
| 2026-04-25 08:20 | -2.88232 | 117.84380 | 32110 ft | 346 kts | 323° |
| 2026-04-25 08:20 | -2.86360 | 117.82820 | 31871 ft | 353 kts | 323° |
| 2026-04-25 08:20 | -2.84489 | 117.81262 | 31646 ft | 346 kts | 323° |
| 2026-04-25 08:21 | -2.82650 | 117.79730 | 31393 ft | 339 kts | 323° |
| 2026-04-25 08:21 | -2.80842 | 117.78225 | 31154 ft | 338 kts | 323° |
| 2026-04-25 08:21 | -2.79032 | 117.76720 | 30923 ft | 339 kts | 322° |
| 2026-04-25 08:21 | -2.77213 | 117.75209 | 30694 ft | 339 kts | 322° |
| 2026-04-25 08:22 | -2.75397 | 117.73699 | 30458 ft | 337 kts | 322° |
| 2026-04-25 08:22 | -2.73619 | 117.72220 | 30236 ft | 335 kts | 322° |
| 2026-04-25 08:22 | -2.71832 | 117.70733 | 30009 ft | 333 kts | 322° |
| 2026-04-25 08:22 | -2.70050 | 117.69251 | 29755 ft | 332 kts | 322° |
| 2026-04-25 08:23 | -2.68276 | 117.67776 | 29496 ft | 330 kts | 322° |
| 2026-04-25 08:23 | -2.66503 | 117.66373 | 29240 ft | 327 kts | 328° |
| 2026-04-25 08:23 | -2.64571 | 117.65200 | 28978 ft | 323 kts | 335° |
| 2026-04-25 08:23 | -2.62523 | 117.64297 | 28719 ft | 320 kts | 342° |
| 2026-04-25 08:24 | -2.60436 | 117.63526 | 28464 ft | 319 kts | 342° |
| 2026-04-25 08:24 | -2.58367 | 117.62746 | 28212 ft | 317 kts | 341° |
| 2026-04-25 08:24 | -2.56309 | 117.61965 | 27959 ft | 315 kts | 341° |
| 2026-04-25 08:24 | -2.54273 | 117.61190 | 27711 ft | 314 kts | 341° |
| 2026-04-25 08:25 | -2.52237 | 117.60416 | 27465 ft | 312 kts | 341° |
| 2026-04-25 08:25 | -2.50210 | 117.59646 | 27226 ft | 310 kts | 341° |
| 2026-04-25 08:25 | -2.48192 | 117.58881 | 26978 ft | 309 kts | 341° |
| 2026-04-25 08:25 | -2.46184 | 117.58119 | 26729 ft | 308 kts | 341° |
| 2026-04-25 08:26 | -2.44187 | 117.57361 | 26500 ft | 306 kts | 341° |
| 2026-04-25 08:26 | -2.42200 | 117.56608 | 26270 ft | 304 kts | 341° |
| 2026-04-25 08:26 | -2.40248 | 117.55867 | 26029 ft | 303 kts | 341° |
| 2026-04-25 08:26 | -2.38307 | 117.55131 | 25802 ft | 302 kts | 341° |
| 2026-04-25 08:27 | -2.36345 | 117.54387 | 25569 ft | 301 kts | 341° |
| 2026-04-25 08:27 | -2.34393 | 117.53647 | 25335 ft | 299 kts | 341° |
| 2026-04-25 08:27 | -2.32455 | 117.52912 | 25022 ft | 297 kts | 341° |
| 2026-04-25 08:27 | -2.30522 | 117.52179 | 24709 ft | 295 kts | 340° |
| 2026-04-25 08:28 | -2.28607 | 117.51453 | 24389 ft | 293 kts | 340° |
| 2026-04-25 08:28 | -2.26709 | 117.50733 | 24081 ft | 292 kts | 340° |
| 2026-04-25 08:28 | -2.24838 | 117.50023 | 23776 ft | 290 kts | 340° |
| 2026-04-25 08:28 | -2.22952 | 117.49308 | 23478 ft | 288 kts | 340° |
| 2026-04-25 08:29 | -2.21080 | 117.48598 | 23131 ft | 287 kts | 340° |
| 2026-04-25 08:29 | -2.19220 | 117.47892 | 22788 ft | 284 kts | 340° |
| 2026-04-25 08:29 | -2.17376 | 117.47193 | 22447 ft | 282 kts | 340° |
| 2026-04-25 08:29 | -2.15546 | 117.46499 | 22129 ft | 280 kts | 340° |
| 2026-04-25 08:30 | -2.13736 | 117.45812 | 21783 ft | 279 kts | 340° |
| 2026-04-25 08:30 | -2.11900 | 117.45117 | 21259 ft | 286 kts | 340° |
| 2026-04-25 08:30 | -2.10018 | 117.44404 | 20731 ft | 292 kts | 340° |
| 2026-04-25 08:30 | -2.08121 | 117.43684 | 20224 ft | 298 kts | 340° |
| 2026-04-25 08:31 | -2.06159 | 117.42941 | 19724 ft | 303 kts | 340° |
| 2026-04-25 08:31 | -2.04166 | 117.42185 | 19213 ft | 308 kts | 340° |
| 2026-04-25 08:31 | -2.02164 | 117.41425 | 18729 ft | 313 kts | 340° |
| 2026-04-25 08:31 | -2.00113 | 117.40647 | 18244 ft | 317 kts | 340° |
| 2026-04-25 08:32 | -1.98039 | 117.39860 | 17692 ft | 318 kts | 340° |
| 2026-04-25 08:32 | -1.95984 | 117.39080 | 17137 ft | 313 kts | 340° |
| 2026-04-25 08:32 | -1.93953 | 117.38309 | 16592 ft | 309 kts | 340° |
| 2026-04-25 08:32 | -1.91955 | 117.37551 | 16059 ft | 305 kts | 341° |
| 2026-04-25 08:33 | -1.89974 | 117.36799 | 15711 ft | 301 kts | 341° |
| 2026-04-25 08:33 | -1.88080 | 117.36080 | 15611 ft | 289 kts | 341° |
| 2026-04-25 08:33 | -1.86242 | 117.35380 | 15521 ft | 277 kts | 341° |
| 2026-04-25 08:33 | -1.84483 | 117.34710 | 15436 ft | 265 kts | 341° |
| 2026-04-25 08:34 | -1.82806 | 117.34070 | 15335 ft | 251 kts | 341° |
| 2026-04-25 08:34 | -1.81197 | 117.33457 | 15156 ft | 244 kts | 341° |
| 2026-04-25 08:34 | -1.79609 | 117.32854 | 14859 ft | 244 kts | 341° |
| 2026-04-25 08:34 | -1.78027 | 117.32253 | 14576 ft | 243 kts | 341° |
| 2026-04-25 08:35 | -1.76450 | 117.31654 | 14305 ft | 241 kts | 341° |
| 2026-04-25 08:35 | -1.74882 | 117.31057 | 14033 ft | 240 kts | 341° |
| 2026-04-25 08:35 | -1.73337 | 117.30469 | 13766 ft | 239 kts | 341° |
| 2026-04-25 08:35 | -1.71787 | 117.29879 | 13485 ft | 237 kts | 341° |
| 2026-04-25 08:36 | -1.70242 | 117.29292 | 13188 ft | 236 kts | 341° |
| 2026-04-25 08:36 | -1.68707 | 117.28708 | 12892 ft | 235 kts | 341° |
| 2026-04-25 08:36 | -1.67199 | 117.28135 | 12623 ft | 234 kts | 341° |
| 2026-04-25 08:36 | -1.65675 | 117.27556 | 12336 ft | 233 kts | 341° |
| 2026-04-25 08:37 | -1.64162 | 117.26980 | 12059 ft | 232 kts | 341° |
| 2026-04-25 08:37 | -1.62656 | 117.26407 | 11790 ft | 231 kts | 341° |
| 2026-04-25 08:37 | -1.61155 | 117.25835 | 11524 ft | 230 kts | 341° |
| 2026-04-25 08:37 | -1.59663 | 117.25267 | 11267 ft | 228 kts | 341° |
| 2026-04-25 08:38 | -1.58198 | 117.24709 | 11004 ft | 228 kts | 342° |
| 2026-04-25 08:38 | -1.56714 | 117.24143 | 10755 ft | 227 kts | 342° |
| 2026-04-25 08:38 | -1.55247 | 117.23584 | 10516 ft | 225 kts | 342° |
| 2026-04-25 08:38 | -1.53779 | 117.23025 | 10265 ft | 225 kts | 342° |
| 2026-04-25 08:39 | -1.52318 | 117.22468 | 10029 ft | 224 kts | 342° |
| 2026-04-25 08:39 | -1.50881 | 117.21920 | 9793 ft | 223 kts | 342° |
| 2026-04-25 08:39 | -1.49435 | 117.21369 | 9542 ft | 222 kts | 342° |
| 2026-04-25 08:39 | -1.47990 | 117.20819 | 9286 ft | 221 kts | 342° |
| 2026-04-25 08:40 | -1.46558 | 117.20273 | 9038 ft | 219 kts | 342° |
| 2026-04-25 08:40 | -1.45128 | 117.19727 | 8781 ft | 219 kts | 342° |
| 2026-04-25 08:40 | -1.43709 | 117.19186 | 8525 ft | 218 kts | 342° |
| 2026-04-25 08:40 | -1.42311 | 117.18653 | 8284 ft | 217 kts | 342° |
| 2026-04-25 08:41 | -1.40889 | 117.18111 | 8046 ft | 215 kts | 342° |
| 2026-04-25 08:41 | -1.39514 | 117.17586 | 7862 ft | 213 kts | 342° |
| 2026-04-25 08:41 | -1.38114 | 117.17053 | 7701 ft | 215 kts | 342° |
| 2026-04-25 08:41 | -1.36721 | 117.16523 | 7536 ft | 212 kts | 342° |
| 2026-04-25 08:42 | -1.35356 | 117.16002 | 7380 ft | 213 kts | 342° |
| 2026-04-25 08:42 | -1.33994 | 117.15482 | 7218 ft | 211 kts | 342° |
| 2026-04-25 08:42 | -1.32617 | 117.14957 | 7061 ft | 211 kts | 342° |
| 2026-04-25 08:42 | -1.31248 | 117.14435 | 7001 ft | 210 kts | 342° |
| 2026-04-25 08:43 | -1.29928 | 117.13799 | 6920 ft | 210 kts | 335° |
| 2026-04-25 08:43 | -1.28636 | 117.13119 | 6730 ft | 209 kts | 335° |
| 2026-04-25 08:43 | -1.27396 | 117.12462 | 6653 ft | 199 kts | 335° |
| 2026-04-25 08:43 | -1.26103 | 117.11784 | 6637 ft | 231 kts | 336° |
| 2026-04-25 08:44 | -1.24551 | 117.10981 | 6640 ft | 274 kts | 335° |
| 2026-04-25 08:44 | -1.22846 | 117.10089 | 6573 ft | 269 kts | 335° |
| 2026-04-25 08:44 | -1.21254 | 117.09226 | 6441 ft | 254 kts | 330° |
| 2026-04-25 08:44 | -1.19861 | 117.08190 | 6205 ft | 245 kts | 326° |
| 2026-04-25 08:45 | -1.18413 | 117.07355 | 5889 ft | 237 kts | 342° |
| 2026-04-25 08:45 | -1.16839 | 117.06976 | 5579 ft | 229 kts | 358° |
| 2026-04-25 08:45 | -1.15298 | 117.07069 | 5286 ft | 222 kts | 15° |
| 2026-04-25 08:45 | -1.13893 | 117.07631 | 4998 ft | 215 kts | 32° |
| 2026-04-25 08:46 | -1.12813 | 117.08634 | 4722 ft | 211 kts | 55° |
| 2026-04-25 08:46 | -1.12240 | 117.09960 | 4457 ft | 209 kts | 77° |
| 2026-04-25 08:46 | -1.12269 | 117.11401 | 4177 ft | 209 kts | 102° |
| 2026-04-25 08:46 | -1.12964 | 117.12672 | 3911 ft | 213 kts | 130° |
| 2026-04-25 08:47 | -1.14198 | 117.13488 | 3702 ft | 213 kts | 160° |
| 2026-04-25 08:47 | -1.15614 | 117.13498 | 3646 ft | 199 kts | 196° |
| 2026-04-25 08:47 | -1.16692 | 117.12740 | 3544 ft | 185 kts | 233° |
| 2026-04-25 08:47 | -1.17337 | 117.11682 | 3437 ft | 174 kts | 243° |
| 2026-04-25 08:48 | -1.17868 | 117.10611 | 3244 ft | 171 kts | 247° |
| 2026-04-25 08:48 | -1.18340 | 117.09533 | 3007 ft | 170 kts | 249° |
| 2026-04-25 08:48 | -1.18801 | 117.08443 | 2775 ft | 170 kts | 250° |
| 2026-04-25 08:48 | -1.19262 | 117.07356 | 2572 ft | 167 kts | 250° |
| 2026-04-25 08:49 | -1.19707 | 117.06303 | 2509 ft | 170 kts | 249° |
| 2026-04-25 08:49 | -1.20165 | 117.05220 | 2497 ft | 167 kts | 250° |
| 2026-04-25 08:49 | -1.20621 | 117.04143 | 2498 ft | 171 kts | 249° |
| 2026-04-25 08:49 | -1.21080 | 117.03058 | 2470 ft | 165 kts | 250° |
| 2026-04-25 08:50 | -1.21520 | 117.02018 | 2178 ft | 166 kts | 250° |
| 2026-04-25 08:50 | -1.21967 | 117.00961 | 2024 ft | 163 kts | 250° |
| 2026-04-25 08:50 | -1.22417 | 116.99898 | 2004 ft | 168 kts | 249° |
| 2026-04-25 08:50 | -1.22865 | 116.98840 | 1997 ft | 165 kts | 250° |
| 2026-04-25 08:51 | -1.23163 | 116.98132 | 2003 ft | 163 kts | 248° |
| 2026-04-25 08:51 | -1.23568 | 116.97198 | 1921 ft | 139 kts | 248° |
| 2026-04-25 08:51 | -1.23958 | 116.96351 | 1710 ft | 131 kts | 246° |
| 2026-04-25 08:51 | -1.24336 | 116.95536 | 1471 ft | 129 kts | 248° |
| 2026-04-25 08:52 | -1.24685 | 116.94711 | 1204 ft | 130 kts | 251° |
| 2026-04-25 08:52 | -1.25026 | 116.93818 | 953 ft | 142 kts | 249° |
| 2026-04-25 08:52 | -1.25376 | 116.92907 | 803 ft | 140 kts | 250° |
| 2026-04-25 08:52 | -1.25767 | 116.92010 | 504 ft | 144 kts | 243° |
| 2026-04-25 08:53 | -1.26180 | 116.91108 | 170 ft | 143 kts | 246° |
| 2026-04-25 08:53 | -1.26517 | 116.90223 | 32 ft | 130 kts | 247° |
| 2026-04-25 08:53 | -1.26790 | 116.89588 | 30 ft | 58 kts | 245° |
| 2026-04-25 08:53 | -1.26894 | 116.89325 | 27 ft | 42 kts | 248° |
| 2026-04-25 08:54 | -1.27005 | 116.89061 | 22 ft | 42 kts | 248° |
| 2026-04-25 08:54 | -1.27032 | 116.88982 | 23 ft | 2 kts | 268° |
| 2026-04-25 08:54 | -1.27020 | 116.88961 | 27 ft | 6 kts | 310° |
| 2026-04-25 08:54 | -1.26973 | 116.88934 | 28 ft | 11 kts | 331° |
| 2026-04-25 08:55 | -1.26890 | 116.88921 | 24 ft | 13 kts | 22° |
| 2026-04-25 08:55 | -1.26847 | 116.88987 | 27 ft | 13 kts | 62° |
| 2026-04-25 08:55 | -1.26807 | 116.89074 | 27 ft | 15 kts | 75° |
| 2026-04-25 08:55 | -1.26766 | 116.89185 | 27 ft | 19 kts | 69° |
| 2026-04-25 08:56 | -1.26711 | 116.89310 | 27 ft | 19 kts | 63° |
| 2026-04-25 08:56 | -1.26659 | 116.89429 | 27 ft | 19 kts | 68° |
| 2026-04-25 08:56 | -1.26605 | 116.89564 | 27 ft | 23 kts | 68° |
| 2026-04-25 08:56 | -1.26555 | 116.89679 | 27 ft | 17 kts | 65° |
| 2026-04-25 08:57 | -1.26518 | 116.89763 | 27 ft | 2 kts | 54° |
| 2026-04-25 08:57 | -1.26494 | 116.89774 | 27 ft | 6 kts | 8° |
| 2026-04-25 08:57 | -1.26453 | 116.89761 | 27 ft | 8 kts | 348° |
| 2026-04-25 08:57 | -1.26438 | 116.89761 | 27 ft | 2 kts | 12° |
| 2026-04-25 08:58 | -1.26430 | 116.89772 | 27 ft | 4 kts | 59° |
| 2026-04-25 08:58 | -1.26409 | 116.89812 | 27 ft | 9 kts | 65° |
| 2026-04-25 08:58 | -1.26386 | 116.89868 | 27 ft | 10 kts | 70° |
| 2026-04-25 08:58 | -1.26357 | 116.89943 | 27 ft | 9 kts | 65° |
| 2026-04-25 08:59 | -1.26328 | 116.90007 | 27 ft | 0 kts | 68° |
| 2026-04-25 08:59 | -1.26322 | 116.90021 | 27 ft | 5 kts | 64° |
| 2026-04-25 08:59 | -1.26308 | 116.90020 | 27 ft | 0 kts | 342° |
| 2026-04-25 08:59 | -1.26298 | 116.90020 | 27 ft | 2 kts | 2° |
| 2026-04-25 09:00 | -1.26282 | 116.90014 | 27 ft | 4 kts | 338° |
| 2026-04-25 09:00 | -1.26264 | 116.90007 | 27 ft | 0 kts | 338° |
| 2026-04-25 09:00 | -1.26254 | 116.90003 | 27 ft | 1 kts | 338° |
| 2026-04-25 09:00 | -1.26251 | 116.90001 | 27 ft | 0 kts | 338° |